sensor_id;sensor_type;location;lat;lon;timestamp;P1;durP1;ratioP1;P2;durP2;ratioP2
40959;SDS011;27842;52.272;8.052;2023-11-18T00:00:36;43.50;;;23.50;;
40959;SDS011;27842;52.272;8.052;2023-11-18T00:03:01;45.87;;;24.27;;
40959;SDS011;27842;52.272;8.052;2023-11-18T00:05:27;37.83;;;21.93;;
40959;SDS011;27842;52.272;8.052;2023-11-18T00:07:52;33.03;;;18.67;;
40959;SDS011;27842;52.272;8.052;2023-11-18T00:10:18;33.93;;;18.43;;
40959;SDS011;27842;52.272;8.052;2023-11-18T00:12:43;28.73;;;17.47;;
40959;SDS011;27842;52.272;8.052;2023-11-18T00:15:09;29.67;;;17.60;;
40959;SDS011;27842;52.272;8.052;2023-11-18T00:17:36;31.33;;;18.23;;
40959;SDS011;27842;52.272;8.052;2023-11-18T00:20:03;29.30;;;17.70;;
40959;SDS011;27842;52.272;8.052;2023-11-18T00:22:37;27.37;;;16.10;;
40959;SDS011;27842;52.272;8.052;2023-11-18T00:25:03;29.50;;;16.65;;
40959;SDS011;27842;52.272;8.052;2023-11-18T00:27:39;28.53;;;16.50;;
40959;SDS011;27842;52.272;8.052;2023-11-18T00:30:05;29.60;;;17.83;;
40959;SDS011;27842;52.272;8.052;2023-11-18T00:32:33;30.40;;;18.20;;
40959;SDS011;27842;52.272;8.052;2023-11-18T00:34:59;33.93;;;19.03;;
40959;SDS011;27842;52.272;8.052;2023-11-18T00:37:25;31.13;;;17.77;;
40959;SDS011;27842;52.272;8.052;2023-11-18T00:39:52;27.60;;;15.57;;
40959;SDS011;27842;52.272;8.052;2023-11-18T00:42:17;26.27;;;14.07;;
40959;SDS011;27842;52.272;8.052;2023-11-18T00:44:43;26.17;;;14.40;;
40959;SDS011;27842;52.272;8.052;2023-11-18T00:47:09;23.80;;;14.37;;
40959;SDS011;27842;52.272;8.052;2023-11-18T00:49:34;25.63;;;14.40;;
40959;SDS011;27842;52.272;8.052;2023-11-18T00:52:00;22.87;;;12.83;;
40959;SDS011;27842;52.272;8.052;2023-11-18T00:54:25;22.50;;;13.80;;
40959;SDS011;27842;52.272;8.052;2023-11-18T00:56:51;22.63;;;13.83;;
40959;SDS011;27842;52.272;8.052;2023-11-18T00:59:17;23.27;;;14.17;;
40959;SDS011;27842;52.272;8.052;2023-11-18T01:01:43;24.43;;;14.43;;
40959;SDS011;27842;52.272;8.052;2023-11-18T01:04:08;28.57;;;15.40;;
40959;SDS011;27842;52.272;8.052;2023-11-18T01:06:34;33.60;;;17.70;;
40959;SDS011;27842;52.272;8.052;2023-11-18T01:09:00;32.80;;;17.63;;
40959;SDS011;27842;52.272;8.052;2023-11-18T01:11:26;34.43;;;18.63;;
40959;SDS011;27842;52.272;8.052;2023-11-18T01:13:51;34.73;;;17.97;;
40959;SDS011;27842;52.272;8.052;2023-11-18T01:16:20;33.72;;;19.65;;
40959;SDS011;27842;52.272;8.052;2023-11-18T01:18:46;35.83;;;18.87;;
40959;SDS011;27842;52.272;8.052;2023-11-18T01:21:12;35.43;;;18.43;;
40959;SDS011;27842;52.272;8.052;2023-11-18T01:23:38;31.77;;;17.60;;
40959;SDS011;27842;52.272;8.052;2023-11-18T01:26:10;33.13;;;18.77;;
40959;SDS011;27842;52.272;8.052;2023-11-18T01:28:37;35.20;;;19.33;;
40959;SDS011;27842;52.272;8.052;2023-11-18T01:31:06;34.35;;;19.75;;
40959;SDS011;27842;52.272;8.052;2023-11-18T01:33:38;29.52;;;16.85;;
40959;SDS011;27842;52.272;8.052;2023-11-18T01:36:06;34.80;;;17.80;;
40959;SDS011;27842;52.272;8.052;2023-11-18T01:38:33;33.73;;;18.50;;
40959;SDS011;27842;52.272;8.052;2023-11-18T01:41:05;37.53;;;19.50;;
40959;SDS011;27842;52.272;8.052;2023-11-18T01:43:31;34.00;;;20.10;;
40959;SDS011;27842;52.272;8.052;2023-11-18T01:46:04;35.07;;;20.00;;
40959;SDS011;27842;52.272;8.052;2023-11-18T01:48:35;34.73;;;18.23;;
40959;SDS011;27842;52.272;8.052;2023-11-18T01:51:04;34.50;;;19.45;;
40959;SDS011;27842;52.272;8.052;2023-11-18T01:53:32;30.17;;;17.70;;
40959;SDS011;27842;52.272;8.052;2023-11-18T01:56:02;34.45;;;18.38;;
40959;SDS011;27842;52.272;8.052;2023-11-18T01:58:30;36.47;;;19.70;;
40959;SDS011;27842;52.272;8.052;2023-11-18T02:00:56;33.93;;;17.60;;
40959;SDS011;27842;52.272;8.052;2023-11-18T02:03:22;31.40;;;17.03;;
40959;SDS011;27842;52.272;8.052;2023-11-18T02:05:48;35.87;;;18.43;;
40959;SDS011;27842;52.272;8.052;2023-11-18T02:08:14;31.77;;;15.23;;
40959;SDS011;27842;52.272;8.052;2023-11-18T02:10:46;36.70;;;17.40;;
40959;SDS011;27842;52.272;8.052;2023-11-18T02:15:50;33.73;;;17.07;;
40959;SDS011;27842;52.272;8.052;2023-11-18T02:18:28;37.87;;;17.20;;
40959;SDS011;27842;52.272;8.052;2023-11-18T02:20:55;34.27;;;16.57;;
40959;SDS011;27842;52.272;8.052;2023-11-18T02:25:53;36.00;;;17.75;;
40959;SDS011;27842;52.272;8.052;2023-11-18T02:28:20;39.10;;;18.60;;
40959;SDS011;27842;52.272;8.052;2023-11-18T02:30:47;34.07;;;17.20;;
40959;SDS011;27842;52.272;8.052;2023-11-18T02:38:35;38.10;;;16.80;;
40959;SDS011;27842;52.272;8.052;2023-11-18T02:41:06;37.33;;;17.50;;
40959;SDS011;27842;52.272;8.052;2023-11-18T02:43:35;37.50;;;17.47;;
40959;SDS011;27842;52.272;8.052;2023-11-18T02:46:03;31.53;;;15.30;;
40959;SDS011;27842;52.272;8.052;2023-11-18T02:48:31;32.13;;;16.47;;
40959;SDS011;27842;52.272;8.052;2023-11-18T02:50:58;35.00;;;17.13;;
40959;SDS011;27842;52.272;8.052;2023-11-18T02:53:24;40.17;;;17.33;;
40959;SDS011;27842;52.272;8.052;2023-11-18T02:55:50;40.77;;;17.23;;
40959;SDS011;27842;52.272;8.052;2023-11-18T02:58:19;37.80;;;16.42;;
40959;SDS011;27842;52.272;8.052;2023-11-18T03:00:45;37.60;;;17.17;;
40959;SDS011;27842;52.272;8.052;2023-11-18T03:03:11;39.03;;;18.53;;
40959;SDS011;27842;52.272;8.052;2023-11-18T03:05:37;36.20;;;16.37;;
40959;SDS011;27842;52.272;8.052;2023-11-18T03:08:03;36.50;;;16.87;;
40959;SDS011;27842;52.272;8.052;2023-11-18T03:10:34;46.83;;;18.83;;
40959;SDS011;27842;52.272;8.052;2023-11-18T03:13:00;40.05;;;18.38;;
40959;SDS011;27842;52.272;8.052;2023-11-18T03:15:26;40.60;;;18.17;;
40959;SDS011;27842;52.272;8.052;2023-11-18T03:17:52;42.93;;;17.17;;
40959;SDS011;27842;52.272;8.052;2023-11-18T03:20:18;43.60;;;18.20;;
40959;SDS011;27842;52.272;8.052;2023-11-18T03:22:47;40.30;;;18.17;;
40959;SDS011;27842;52.272;8.052;2023-11-18T03:25:15;41.53;;;17.30;;
40959;SDS011;27842;52.272;8.052;2023-11-18T03:27:41;38.00;;;17.00;;
40959;SDS011;27842;52.272;8.052;2023-11-18T03:30:07;40.27;;;18.23;;
40959;SDS011;27842;52.272;8.052;2023-11-18T03:32:34;33.23;;;16.20;;
40959;SDS011;27842;52.272;8.052;2023-11-18T03:35:02;34.10;;;15.43;;
40959;SDS011;27842;52.272;8.052;2023-11-18T03:37:29;33.07;;;16.30;;
40959;SDS011;27842;52.272;8.052;2023-11-18T03:39:55;34.03;;;15.37;;
40959;SDS011;27842;52.272;8.052;2023-11-18T03:42:20;32.10;;;16.50;;
40959;SDS011;27842;52.272;8.052;2023-11-18T03:44:47;36.63;;;17.03;;
40959;SDS011;27842;52.272;8.052;2023-11-18T03:47:13;32.67;;;16.07;;
40959;SDS011;27842;52.272;8.052;2023-11-18T03:49:39;38.03;;;17.67;;
40959;SDS011;27842;52.272;8.052;2023-11-18T03:52:05;37.27;;;17.57;;
40959;SDS011;27842;52.272;8.052;2023-11-18T03:54:31;34.87;;;17.20;;
40959;SDS011;27842;52.272;8.052;2023-11-18T03:56:57;41.67;;;18.03;;
40959;SDS011;27842;52.272;8.052;2023-11-18T03:59:22;38.63;;;17.00;;
40959;SDS011;27842;52.272;8.052;2023-11-18T04:01:48;36.20;;;17.30;;
40959;SDS011;27842;52.272;8.052;2023-11-18T04:04:15;39.60;;;19.27;;
40959;SDS011;27842;52.272;8.052;2023-11-18T04:06:41;39.97;;;19.63;;
40959;SDS011;27842;52.272;8.052;2023-11-18T04:09:07;44.40;;;20.07;;
40959;SDS011;27842;52.272;8.052;2023-11-18T04:11:35;40.80;;;19.20;;
40959;SDS011;27842;52.272;8.052;2023-11-18T04:14:00;39.73;;;18.53;;
40959;SDS011;27842;52.272;8.052;2023-11-18T04:16:28;38.57;;;17.97;;
40959;SDS011;27842;52.272;8.052;2023-11-18T04:18:54;36.53;;;17.27;;
40959;SDS011;27842;52.272;8.052;2023-11-18T04:21:19;37.50;;;17.77;;
40959;SDS011;27842;52.272;8.052;2023-11-18T04:23:45;35.97;;;17.37;;
40959;SDS011;27842;52.272;8.052;2023-11-18T04:26:11;38.03;;;17.77;;
40959;SDS011;27842;52.272;8.052;2023-11-18T04:28:37;37.77;;;17.90;;
40959;SDS011;27842;52.272;8.052;2023-11-18T04:31:03;35.73;;;17.87;;
40959;SDS011;27842;52.272;8.052;2023-11-18T04:33:32;37.20;;;16.98;;
40959;SDS011;27842;52.272;8.052;2023-11-18T04:35:58;34.57;;;16.73;;
40959;SDS011;27842;52.272;8.052;2023-11-18T04:38:24;36.13;;;17.53;;
40959;SDS011;27842;52.272;8.052;2023-11-18T04:40:51;37.50;;;16.63;;
40959;SDS011;27842;52.272;8.052;2023-11-18T04:43:17;35.23;;;16.87;;
40959;SDS011;27842;52.272;8.052;2023-11-18T04:45:43;38.10;;;16.50;;
40959;SDS011;27842;52.272;8.052;2023-11-18T04:48:09;37.13;;;16.70;;
40959;SDS011;27842;52.272;8.052;2023-11-18T04:50:34;36.13;;;15.97;;
40959;SDS011;27842;52.272;8.052;2023-11-18T04:53:00;36.97;;;17.17;;
40959;SDS011;27842;52.272;8.052;2023-11-18T04:55:27;33.73;;;16.73;;
40959;SDS011;27842;52.272;8.052;2023-11-18T04:57:53;33.70;;;15.53;;
40959;SDS011;27842;52.272;8.052;2023-11-18T05:00:19;35.23;;;15.93;;
40959;SDS011;27842;52.272;8.052;2023-11-18T05:02:46;34.73;;;16.07;;
40959;SDS011;27842;52.272;8.052;2023-11-18T05:05:13;35.87;;;16.80;;
40959;SDS011;27842;52.272;8.052;2023-11-18T05:07:40;34.87;;;17.03;;
40959;SDS011;27842;52.272;8.052;2023-11-18T05:10:07;34.40;;;16.20;;
40959;SDS011;27842;52.272;8.052;2023-11-18T05:12:34;35.63;;;16.10;;
40959;SDS011;27842;52.272;8.052;2023-11-18T05:15:00;37.63;;;17.50;;
40959;SDS011;27842;52.272;8.052;2023-11-18T05:17:26;34.77;;;16.33;;
40959;SDS011;27842;52.272;8.052;2023-11-18T05:19:54;32.53;;;15.77;;
40959;SDS011;27842;52.272;8.052;2023-11-18T05:22:20;35.57;;;16.97;;
40959;SDS011;27842;52.272;8.052;2023-11-18T05:24:46;35.10;;;16.50;;
40959;SDS011;27842;52.272;8.052;2023-11-18T05:27:13;36.53;;;17.73;;
40959;SDS011;27842;52.272;8.052;2023-11-18T05:29:39;35.43;;;17.60;;
40959;SDS011;27842;52.272;8.052;2023-11-18T05:32:06;37.60;;;18.13;;
40959;SDS011;27842;52.272;8.052;2023-11-18T05:34:32;35.17;;;16.80;;
40959;SDS011;27842;52.272;8.052;2023-11-18T05:37:00;33.23;;;16.80;;
40959;SDS011;27842;52.272;8.052;2023-11-18T05:39:26;34.87;;;16.97;;
40959;SDS011;27842;52.272;8.052;2023-11-18T05:41:56;35.77;;;16.20;;
40959;SDS011;27842;52.272;8.052;2023-11-18T05:44:23;37.47;;;17.37;;
40959;SDS011;27842;52.272;8.052;2023-11-18T05:46:58;34.67;;;16.50;;
40959;SDS011;27842;52.272;8.052;2023-11-18T05:49:24;37.63;;;17.17;;
40959;SDS011;27842;52.272;8.052;2023-11-18T05:51:50;33.33;;;17.17;;
40959;SDS011;27842;52.272;8.052;2023-11-18T05:54:16;38.17;;;17.83;;
40959;SDS011;27842;52.272;8.052;2023-11-18T05:56:42;33.53;;;17.37;;
40959;SDS011;27842;52.272;8.052;2023-11-18T05:59:08;37.63;;;16.80;;
40959;SDS011;27842;52.272;8.052;2023-11-18T06:01:33;38.73;;;18.73;;
40959;SDS011;27842;52.272;8.052;2023-11-18T06:03:59;38.43;;;19.83;;
40959;SDS011;27842;52.272;8.052;2023-11-18T06:06:26;35.40;;;17.83;;
40959;SDS011;27842;52.272;8.052;2023-11-18T06:08:52;36.03;;;17.43;;
40959;SDS011;27842;52.272;8.052;2023-11-18T06:11:18;37.90;;;17.17;;
40959;SDS011;27842;52.272;8.052;2023-11-18T06:13:45;35.97;;;17.70;;
40959;SDS011;27842;52.272;8.052;2023-11-18T06:16:13;38.23;;;19.03;;
40959;SDS011;27842;52.272;8.052;2023-11-18T06:18:40;37.63;;;18.53;;
40959;SDS011;27842;52.272;8.052;2023-11-18T06:21:07;35.70;;;17.03;;
40959;SDS011;27842;52.272;8.052;2023-11-18T06:23:35;33.87;;;16.67;;
40959;SDS011;27842;52.272;8.052;2023-11-18T06:26:00;35.87;;;17.20;;
40959;SDS011;27842;52.272;8.052;2023-11-18T06:28:27;34.77;;;15.87;;
40959;SDS011;27842;52.272;8.052;2023-11-18T06:30:53;36.93;;;17.20;;
40959;SDS011;27842;52.272;8.052;2023-11-18T06:33:19;36.00;;;17.00;;
40959;SDS011;27842;52.272;8.052;2023-11-18T06:35:47;35.40;;;17.70;;
40959;SDS011;27842;52.272;8.052;2023-11-18T06:38:13;32.27;;;16.03;;
40959;SDS011;27842;52.272;8.052;2023-11-18T06:40:40;33.73;;;17.07;;
40959;SDS011;27842;52.272;8.052;2023-11-18T06:43:06;32.53;;;16.80;;
40959;SDS011;27842;52.272;8.052;2023-11-18T06:45:36;34.97;;;16.73;;
40959;SDS011;27842;52.272;8.052;2023-11-18T06:48:02;32.70;;;16.60;;
40959;SDS011;27842;52.272;8.052;2023-11-18T06:50:30;33.60;;;16.60;;
40959;SDS011;27842;52.272;8.052;2023-11-18T06:52:57;39.23;;;17.23;;
40959;SDS011;27842;52.272;8.052;2023-11-18T06:55:23;35.27;;;16.33;;
40959;SDS011;27842;52.272;8.052;2023-11-18T06:57:51;36.13;;;18.37;;
40959;SDS011;27842;52.272;8.052;2023-11-18T07:00:17;37.13;;;18.70;;
40959;SDS011;27842;52.272;8.052;2023-11-18T07:02:43;35.63;;;17.23;;
40959;SDS011;27842;52.272;8.052;2023-11-18T07:05:08;38.13;;;18.27;;
40959;SDS011;27842;52.272;8.052;2023-11-18T07:07:34;40.17;;;18.40;;
40959;SDS011;27842;52.272;8.052;2023-11-18T07:10:00;37.23;;;18.00;;
40959;SDS011;27842;52.272;8.052;2023-11-18T07:12:25;39.27;;;18.70;;
40959;SDS011;27842;52.272;8.052;2023-11-18T07:14:51;38.50;;;18.07;;
40959;SDS011;27842;52.272;8.052;2023-11-18T07:17:19;37.33;;;18.93;;
40959;SDS011;27842;52.272;8.052;2023-11-18T07:19:44;38.30;;;19.83;;
40959;SDS011;27842;52.272;8.052;2023-11-18T07:22:10;36.10;;;18.37;;
40959;SDS011;27842;52.272;8.052;2023-11-18T07:24:36;37.60;;;18.33;;
40959;SDS011;27842;52.272;8.052;2023-11-18T07:27:02;38.67;;;19.40;;
40959;SDS011;27842;52.272;8.052;2023-11-18T07:29:30;37.73;;;19.10;;
40959;SDS011;27842;52.272;8.052;2023-11-18T07:31:57;37.93;;;19.27;;
40959;SDS011;27842;52.272;8.052;2023-11-18T07:34:23;37.50;;;18.93;;
40959;SDS011;27842;52.272;8.052;2023-11-18T07:36:48;41.00;;;18.87;;
40959;SDS011;27842;52.272;8.052;2023-11-18T07:39:15;38.47;;;18.47;;
40959;SDS011;27842;52.272;8.052;2023-11-18T07:41:41;40.93;;;19.40;;
40959;SDS011;27842;52.272;8.052;2023-11-18T07:44:07;39.20;;;18.47;;
40959;SDS011;27842;52.272;8.052;2023-11-18T07:46:35;39.65;;;19.92;;
40959;SDS011;27842;52.272;8.052;2023-11-18T07:49:03;41.07;;;19.83;;
40959;SDS011;27842;52.272;8.052;2023-11-18T07:51:29;38.07;;;18.57;;
40959;SDS011;27842;52.272;8.052;2023-11-18T07:53:55;42.00;;;20.57;;
40959;SDS011;27842;52.272;8.052;2023-11-18T07:56:20;37.80;;;17.50;;
40959;SDS011;27842;52.272;8.052;2023-11-18T07:58:49;37.20;;;18.57;;
40959;SDS011;27842;52.272;8.052;2023-11-18T08:01:17;40.13;;;18.23;;
40959;SDS011;27842;52.272;8.052;2023-11-18T08:03:43;38.93;;;18.87;;
40959;SDS011;27842;52.272;8.052;2023-11-18T08:06:10;38.63;;;18.87;;
40959;SDS011;27842;52.272;8.052;2023-11-18T08:08:37;37.83;;;18.77;;
40959;SDS011;27842;52.272;8.052;2023-11-18T08:11:03;38.90;;;18.43;;
40959;SDS011;27842;52.272;8.052;2023-11-18T08:13:35;39.93;;;18.23;;
40959;SDS011;27842;52.272;8.052;2023-11-18T08:16:00;38.70;;;17.93;;
40959;SDS011;27842;52.272;8.052;2023-11-18T08:18:26;39.17;;;18.23;;
40959;SDS011;27842;52.272;8.052;2023-11-18T08:20:54;36.43;;;17.63;;
40959;SDS011;27842;52.272;8.052;2023-11-18T08:23:20;35.73;;;16.90;;
40959;SDS011;27842;52.272;8.052;2023-11-18T08:25:45;39.33;;;21.30;;
40959;SDS011;27842;52.272;8.052;2023-11-18T08:28:11;36.33;;;18.50;;
40959;SDS011;27842;52.272;8.052;2023-11-18T08:30:38;36.90;;;17.97;;
40959;SDS011;27842;52.272;8.052;2023-11-18T08:33:04;34.53;;;16.23;;
40959;SDS011;27842;52.272;8.052;2023-11-18T08:35:33;33.45;;;16.80;;
40959;SDS011;27842;52.272;8.052;2023-11-18T08:38:02;32.42;;;16.38;;
40959;SDS011;27842;52.272;8.052;2023-11-18T08:40:29;35.07;;;16.63;;
40959;SDS011;27842;52.272;8.052;2023-11-18T08:42:55;33.33;;;16.50;;
40959;SDS011;27842;52.272;8.052;2023-11-18T08:45:25;30.43;;;15.20;;
40959;SDS011;27842;52.272;8.052;2023-11-18T08:47:55;34.97;;;16.40;;
40959;SDS011;27842;52.272;8.052;2023-11-18T08:50:21;33.80;;;16.17;;
40959;SDS011;27842;52.272;8.052;2023-11-18T08:52:49;31.67;;;15.73;;
40959;SDS011;27842;52.272;8.052;2023-11-18T08:55:22;31.77;;;17.13;;
40959;SDS011;27842;52.272;8.052;2023-11-18T08:57:59;28.60;;;14.63;;
40959;SDS011;27842;52.272;8.052;2023-11-18T09:00:28;29.80;;;16.30;;
40959;SDS011;27842;52.272;8.052;2023-11-18T09:03:15;33.33;;;15.13;;
40959;SDS011;27842;52.272;8.052;2023-11-18T09:05:53;28.03;;;15.40;;
40959;SDS011;27842;52.272;8.052;2023-11-18T09:10:52;32.63;;;16.90;;
40959;SDS011;27842;52.272;8.052;2023-11-18T09:13:25;27.57;;;13.83;;
40959;SDS011;27842;52.272;8.052;2023-11-18T09:15:58;27.27;;;14.50;;
40959;SDS011;27842;52.272;8.052;2023-11-18T09:18:28;27.50;;;13.87;;
40959;SDS011;27842;52.272;8.052;2023-11-18T09:20:55;29.77;;;15.40;;
40959;SDS011;27842;52.272;8.052;2023-11-18T09:23:25;28.63;;;15.27;;
40959;SDS011;27842;52.272;8.052;2023-11-18T09:25:52;28.27;;;14.40;;
40959;SDS011;27842;52.272;8.052;2023-11-18T09:28:21;29.83;;;15.30;;
40959;SDS011;27842;52.272;8.052;2023-11-18T09:30:49;27.65;;;13.77;;
40959;SDS011;27842;52.272;8.052;2023-11-18T09:33:19;27.60;;;15.70;;
40959;SDS011;27842;52.272;8.052;2023-11-18T09:35:56;35.07;;;15.93;;
40959;SDS011;27842;52.272;8.052;2023-11-18T09:38:32;29.35;;;14.90;;
40959;SDS011;27842;52.272;8.052;2023-11-18T09:41:02;29.43;;;15.20;;
40959;SDS011;27842;52.272;8.052;2023-11-18T09:43:35;30.33;;;15.20;;
40959;SDS011;27842;52.272;8.052;2023-11-18T09:46:07;29.00;;;15.37;;
40959;SDS011;27842;52.272;8.052;2023-11-18T09:48:44;30.03;;;15.30;;
40959;SDS011;27842;52.272;8.052;2023-11-18T09:53:49;25.70;;;13.63;;
40959;SDS011;27842;52.272;8.052;2023-11-18T09:56:18;42.13;;;22.17;;
40959;SDS011;27842;52.272;8.052;2023-11-18T09:58:54;27.60;;;15.37;;
40959;SDS011;27842;52.272;8.052;2023-11-18T10:01:30;28.10;;;13.93;;
40959;SDS011;27842;52.272;8.052;2023-11-18T10:04:03;26.53;;;13.97;;
40959;SDS011;27842;52.272;8.052;2023-11-18T10:06:31;31.08;;;14.85;;
40959;SDS011;27842;52.272;8.052;2023-11-18T10:09:01;27.45;;;15.02;;
40959;SDS011;27842;52.272;8.052;2023-11-18T10:11:40;28.63;;;14.47;;
40959;SDS011;27842;52.272;8.052;2023-11-18T10:14:06;26.37;;;13.77;;
40959;SDS011;27842;52.272;8.052;2023-11-18T10:16:33;27.40;;;14.47;;
40959;SDS011;27842;52.272;8.052;2023-11-18T10:18:59;26.50;;;14.53;;
40959;SDS011;27842;52.272;8.052;2023-11-18T10:21:36;27.97;;;15.07;;
40959;SDS011;27842;52.272;8.052;2023-11-18T10:24:04;30.03;;;15.30;;
40959;SDS011;27842;52.272;8.052;2023-11-18T10:26:42;28.10;;;14.77;;
40959;SDS011;27842;52.272;8.052;2023-11-18T10:29:10;31.17;;;15.50;;
40959;SDS011;27842;52.272;8.052;2023-11-18T10:31:38;26.57;;;13.20;;
40959;SDS011;27842;52.272;8.052;2023-11-18T10:34:10;25.70;;;12.70;;
40959;SDS011;27842;52.272;8.052;2023-11-18T10:36:54;28.07;;;14.33;;
40959;SDS011;27842;52.272;8.052;2023-11-18T10:39:27;25.37;;;13.03;;
40959;SDS011;27842;52.272;8.052;2023-11-18T10:41:58;25.53;;;12.90;;
40959;SDS011;27842;52.272;8.052;2023-11-18T10:44:25;25.55;;;13.27;;
40959;SDS011;27842;52.272;8.052;2023-11-18T10:46:55;25.00;;;12.03;;
40959;SDS011;27842;52.272;8.052;2023-11-18T10:49:24;24.00;;;12.47;;
40959;SDS011;27842;52.272;8.052;2023-11-18T10:51:54;23.80;;;13.33;;
40959;SDS011;27842;52.272;8.052;2023-11-18T10:54:21;23.17;;;12.10;;
40959;SDS011;27842;52.272;8.052;2023-11-18T10:56:48;23.27;;;13.33;;
40959;SDS011;27842;52.272;8.052;2023-11-18T10:59:15;25.90;;;13.17;;
40959;SDS011;27842;52.272;8.052;2023-11-18T11:01:41;27.20;;;13.90;;
40959;SDS011;27842;52.272;8.052;2023-11-18T11:04:09;25.47;;;13.87;;
40959;SDS011;27842;52.272;8.052;2023-11-18T11:06:42;23.00;;;12.93;;
40959;SDS011;27842;52.272;8.052;2023-11-18T11:09:11;23.83;;;12.57;;
40959;SDS011;27842;52.272;8.052;2023-11-18T11:11:49;25.23;;;12.17;;
40959;SDS011;27842;52.272;8.052;2023-11-18T11:14:33;26.63;;;11.17;;
40959;SDS011;27842;52.272;8.052;2023-11-18T11:17:07;21.17;;;9.30;;
40959;SDS011;27842;52.272;8.052;2023-11-18T11:19:55;25.50;;;10.03;;
40959;SDS011;27842;52.272;8.052;2023-11-18T11:22:44;21.13;;;10.10;;
40959;SDS011;27842;52.272;8.052;2023-11-18T11:25:25;25.63;;;10.27;;
40959;SDS011;27842;52.272;8.052;2023-11-18T11:28:16;29.13;;;12.67;;
40959;SDS011;27842;52.272;8.052;2023-11-18T11:30:46;24.90;;;11.13;;
40959;SDS011;27842;52.272;8.052;2023-11-18T11:33:42;21.40;;;9.07;;
40959;SDS011;27842;52.272;8.052;2023-11-18T11:36:12;22.73;;;9.53;;
40959;SDS011;27842;52.272;8.052;2023-11-18T11:38:47;22.07;;;10.37;;
40959;SDS011;27842;52.272;8.052;2023-11-18T11:41:17;22.07;;;9.87;;
40959;SDS011;27842;52.272;8.052;2023-11-18T11:43:51;21.83;;;10.07;;
40959;SDS011;27842;52.272;8.052;2023-11-18T11:46:22;21.63;;;9.93;;
40959;SDS011;27842;52.272;8.052;2023-11-18T11:48:52;21.20;;;9.30;;
40959;SDS011;27842;52.272;8.052;2023-11-18T11:54:27;21.13;;;8.43;;
40959;SDS011;27842;52.272;8.052;2023-11-18T11:57:01;21.53;;;9.10;;
40959;SDS011;27842;52.272;8.052;2023-11-18T12:02:02;20.90;;;8.63;;
40959;SDS011;27842;52.272;8.052;2023-11-18T12:04:32;19.80;;;8.73;;
40959;SDS011;27842;52.272;8.052;2023-11-18T12:07:03;21.43;;;8.53;;
40959;SDS011;27842;52.272;8.052;2023-11-18T12:09:34;20.97;;;9.70;;
40959;SDS011;27842;52.272;8.052;2023-11-18T12:12:04;19.20;;;8.53;;
40959;SDS011;27842;52.272;8.052;2023-11-18T12:14:48;18.63;;;8.30;;
40959;SDS011;27842;52.272;8.052;2023-11-18T12:23:18;19.23;;;8.37;;
40959;SDS011;27842;52.272;8.052;2023-11-18T12:25:48;21.42;;;8.70;;
40959;SDS011;27842;52.272;8.052;2023-11-18T12:28:19;18.10;;;8.30;;
40959;SDS011;27842;52.272;8.052;2023-11-18T12:30:47;23.27;;;8.73;;
40959;SDS011;27842;52.272;8.052;2023-11-18T12:42:03;20.37;;;8.37;;
40959;SDS011;27842;52.272;8.052;2023-11-18T12:44:37;18.87;;;8.37;;
40959;SDS011;27842;52.272;8.052;2023-11-18T12:47:14;21.57;;;8.80;;
40959;SDS011;27842;52.272;8.052;2023-11-18T12:49:47;23.87;;;8.93;;
40959;SDS011;27842;52.272;8.052;2023-11-18T12:52:20;20.37;;;8.10;;
40959;SDS011;27842;52.272;8.052;2023-11-18T12:54:46;19.97;;;8.87;;
40959;SDS011;27842;52.272;8.052;2023-11-18T12:57:26;19.03;;;9.07;;
40959;SDS011;27842;52.272;8.052;2023-11-18T12:59:56;18.40;;;8.30;;
40959;SDS011;27842;52.272;8.052;2023-11-18T13:02:22;21.07;;;9.27;;
40959;SDS011;27842;52.272;8.052;2023-11-18T13:04:48;21.57;;;10.07;;
40959;SDS011;27842;52.272;8.052;2023-11-18T13:07:17;20.23;;;8.33;;
40959;SDS011;27842;52.272;8.052;2023-11-18T13:09:46;19.23;;;8.63;;
40959;SDS011;27842;52.272;8.052;2023-11-18T13:12:13;19.07;;;8.77;;
40959;SDS011;27842;52.272;8.052;2023-11-18T13:14:40;19.83;;;9.00;;
40959;SDS011;27842;52.272;8.052;2023-11-18T13:17:11;19.80;;;9.10;;
40959;SDS011;27842;52.272;8.052;2023-11-18T13:19:38;18.87;;;8.73;;
40959;SDS011;27842;52.272;8.052;2023-11-18T13:22:05;21.40;;;9.30;;
40959;SDS011;27842;52.272;8.052;2023-11-18T13:24:33;20.43;;;8.93;;
40959;SDS011;27842;52.272;8.052;2023-11-18T13:27:06;20.00;;;9.40;;
40959;SDS011;27842;52.272;8.052;2023-11-18T13:29:34;21.83;;;10.00;;
40959;SDS011;27842;52.272;8.052;2023-11-18T13:32:01;21.20;;;9.10;;
40959;SDS011;27842;52.272;8.052;2023-11-18T13:34:32;22.63;;;9.10;;
40959;SDS011;27842;52.272;8.052;2023-11-18T13:37:06;20.93;;;9.23;;
40959;SDS011;27842;52.272;8.052;2023-11-18T13:39:32;21.10;;;9.17;;
40959;SDS011;27842;52.272;8.052;2023-11-18T13:41:58;20.27;;;8.87;;
40959;SDS011;27842;52.272;8.052;2023-11-18T13:44:42;22.03;;;9.03;;
40959;SDS011;27842;52.272;8.052;2023-11-18T13:47:09;18.90;;;8.53;;
40959;SDS011;27842;52.272;8.052;2023-11-18T13:49:39;21.30;;;9.73;;
40959;SDS011;27842;52.272;8.052;2023-11-18T13:52:05;21.17;;;9.03;;
40959;SDS011;27842;52.272;8.052;2023-11-18T13:54:34;18.48;;;8.73;;
40959;SDS011;27842;52.272;8.052;2023-11-18T13:57:00;20.10;;;9.10;;
40959;SDS011;27842;52.272;8.052;2023-11-18T13:59:28;18.27;;;8.37;;
40959;SDS011;27842;52.272;8.052;2023-11-18T14:01:54;18.33;;;8.60;;
40959;SDS011;27842;52.272;8.052;2023-11-18T14:04:27;19.50;;;9.30;;
40959;SDS011;27842;52.272;8.052;2023-11-18T14:06:57;21.13;;;8.83;;
40959;SDS011;27842;52.272;8.052;2023-11-18T14:09:25;20.80;;;8.53;;
40959;SDS011;27842;52.272;8.052;2023-11-18T14:11:52;19.80;;;9.20;;
40959;SDS011;27842;52.272;8.052;2023-11-18T14:14:20;19.10;;;8.67;;
40959;SDS011;27842;52.272;8.052;2023-11-18T14:16:46;21.27;;;9.13;;
40959;SDS011;27842;52.272;8.052;2023-11-18T14:19:12;19.53;;;9.07;;
40959;SDS011;27842;52.272;8.052;2023-11-18T14:21:38;21.20;;;8.73;;
40959;SDS011;27842;52.272;8.052;2023-11-18T14:24:06;19.97;;;8.50;;
40959;SDS011;27842;52.272;8.052;2023-11-18T14:26:33;20.93;;;8.73;;
40959;SDS011;27842;52.272;8.052;2023-11-18T14:28:58;17.77;;;7.83;;
40959;SDS011;27842;52.272;8.052;2023-11-18T14:31:25;18.70;;;8.63;;
40959;SDS011;27842;52.272;8.052;2023-11-18T14:33:51;20.07;;;8.60;;
40959;SDS011;27842;52.272;8.052;2023-11-18T14:36:17;19.93;;;8.53;;
40959;SDS011;27842;52.272;8.052;2023-11-18T14:38:44;21.53;;;7.83;;
40959;SDS011;27842;52.272;8.052;2023-11-18T14:41:10;19.67;;;8.50;;
40959;SDS011;27842;52.272;8.052;2023-11-18T14:43:36;18.90;;;8.30;;
40959;SDS011;27842;52.272;8.052;2023-11-18T14:46:02;18.90;;;8.60;;
40959;SDS011;27842;52.272;8.052;2023-11-18T14:48:29;21.23;;;8.77;;
40959;SDS011;27842;52.272;8.052;2023-11-18T14:50:54;19.40;;;8.43;;
40959;SDS011;27842;52.272;8.052;2023-11-18T14:53:22;20.10;;;8.77;;
40959;SDS011;27842;52.272;8.052;2023-11-18T14:55:47;18.60;;;7.70;;
40959;SDS011;27842;52.272;8.052;2023-11-18T14:58:13;17.07;;;7.60;;
40959;SDS011;27842;52.272;8.052;2023-11-18T15:00:39;20.07;;;8.10;;
40959;SDS011;27842;52.272;8.052;2023-11-18T15:03:05;18.10;;;8.30;;
40959;SDS011;27842;52.272;8.052;2023-11-18T15:05:31;18.03;;;8.10;;